Aérodrome :
LOGIN :

S'inscrire | Disclaimer

   EN    FR    IT 

 










Légende :    VFR   VFR Marginal   IFR   IFR Intensif   IFR Très Intensif
Visi : 
Plafond : 
>= 8 km
>= 3000ft
5 à 8 km
1000 à 3000 ft
1500m à 5 km
500 à 1000 ft
800 à 1500m
200 à 500 ft
< 800m
< 200 ft
Symboles :   Orages  Brouillard  Fortes neiges  Fortes précipitations  Vent > 20 kt
SIGMETs :   Divers  Orages  Givrage  Turbulence  Onde Orograph.  Cendres Volcan.






- Altitude de l'aérodrome : 106 ft
- Code IATA : NRN


EDLV - Weeze

DERNIER METAR :
  • 041650Z 19006KT 9999 FEW032 07/01 Q0987

METARs EXPIRÉS :
  • 041620Z 19007KT 9999 SCT031 07/02 Q0987
  • 041550Z 19006KT 9999 BKN031 07/02 Q0987
  • 041520Z 19007KT 9999 SCT032 07/02 Q0986
  • 041450Z 17008KT 9999 SCT045 08/02 Q0986
  • 041420Z 17006KT 9999 BKN032 08/02 Q0985

TAF TAF EDLV
Valide du 04 à 12h jusqu'au 05 à 12h UTC


041100Z 0412/0512 18012KT 9999 SCT040
BECMG 0414/0417 14007KT
BECMG 0423/0502 VRB03KT
PROB30
TEMPO 0503/0509 4000 BR
BECMG 0509/0512 19007KT



MET'MAP, la Météo Aéronautique d'un coup d'oeil ! - Copyright ORBIFLY Décembre 2007 - Disclaimer

ORBIFLY MET'MAP TEAM :

Programmation & Développement : Alexandra Zaïnal
Sur une idée originale de : Baudouin d'Aumeries
Assistance à la programmation : Marc-Olivier Méhu
Soutien technique & logistique : Manuel Goepfert

Contact : metmap@orbifly.com




SOURCES & CREDITS :

   NOAA